Time;durP1;ratioP1;P1;durP2;ratioP2;P2;SDS_P1;SDS_P2;PMS_P1;PMS_P2;Temp;Humidity;BMP_temperature;BMP_pressure;BME280_temperature;BME280_humidity;BME280_pressure;Samples;Min_cycle;Max_cycle;Signal;HPM_P1;HPM_P2
2022/04/03 00:02:25;;;;;;;3.53;2.55;;;0.50;99.90;;;;;;5118979;27;20451;-73
2022/04/03 00:04:50;;;;;;;2.97;2.28;;;0.50;99.90;;;;;;5136980;27;20129;-74
2022/04/03 00:07:16;;;;;;;6.03;2.60;;;0.50;99.90;;;;;;5136752;27;20142;-73
2022/04/03 00:09:41;;;;;;;4.38;2.60;;;0.60;99.90;;;;;;5118962;27;20131;-74
2022/04/03 00:12:07;;;;;;;3.92;2.72;;;0.60;99.90;;;;;;5118327;27;20108;-73
2022/04/03 00:14:33;;;;;;;3.47;2.80;;;0.60;99.90;;;;;;5118597;27;20043;-74
2022/04/03 00:16:59;;;;;;;5.22;2.75;;;0.70;99.90;;;;;;5101471;27;20388;-74
2022/04/03 00:19:24;;;;;;;4.68;2.90;;;0.80;99.90;;;;;;5136800;27;20094;-74
2022/04/03 00:21:50;;;;;;;4.90;3.47;;;0.80;99.90;;;;;;5136773;27;20036;-74
2022/04/03 00:24:17;;;;;;;4.38;3.35;;;0.80;99.90;;;;;;5136321;27;20101;-74
2022/04/03 00:26:42;;;;;;;5.28;3.30;;;0.80;99.90;;;;;;5136819;27;20047;-74
2022/04/03 00:29:08;;;;;;;4.35;3.33;;;0.90;99.90;;;;;;5136089;27;20043;-73
2022/04/03 00:31:34;;;;;;;4.93;3.80;;;1.00;99.90;;;;;;5136522;27;20069;-74
2022/04/03 00:34:00;;;;;;;6.18;3.70;;;0.90;99.90;;;;;;5117931;27;20122;-74
2022/04/03 00:36:26;;;;;;;5.30;3.50;;;1.00;99.90;;;;;;5136302;27;20517;-73
2022/04/03 00:38:51;;;;;;;5.30;3.10;;;1.00;99.90;;;;;;5118134;27;20046;-75
2022/04/03 00:41:17;;;;;;;4.63;3.40;;;1.00;99.90;;;;;;5135896;27;20039;-74
2022/04/03 00:43:43;;;;;;;6.97;3.85;;;1.10;99.90;;;;;;5100909;27;20376;-74
2022/04/03 00:46:09;;;;;;;6.95;4.15;;;1.10;99.90;;;;;;5116583;27;20043;-73
2022/04/03 00:48:35;;;;;;;6.07;3.67;;;1.20;99.90;;;;;;5136139;27;20437;-74
2022/04/03 00:51:01;;;;;;;4.65;3.47;;;1.20;99.90;;;;;;5117647;27;20046;-78
2022/04/03 00:53:27;;;;;;;4.47;3.35;;;1.20;99.90;;;;;;5100997;27;20043;-74
2022/04/03 00:55:52;;;;;;;5.20;4.03;;;1.20;99.90;;;;;;5100879;27;20130;-74
2022/04/03 00:58:18;;;;;;;5.72;3.72;;;1.30;99.90;;;;;;5100141;27;20391;-74
2022/04/03 01:00:43;;;;;;;6.50;3.83;;;1.30;99.90;;;;;;5135320;27;20039;-73
2022/04/03 01:03:09;;;;;;;6.68;4.35;;;1.30;99.90;;;;;;5135245;27;20129;-74
2022/04/03 01:05:36;;;;;;;4.95;4.07;;;1.40;99.90;;;;;;5117403;27;20041;-73
2022/04/03 01:08:02;;;;;;;5.50;4.40;;;1.30;99.90;;;;;;5135805;27;20069;-74
2022/04/03 01:10:27;;;;;;;6.85;4.57;;;1.40;99.90;;;;;;5117074;27;20035;-73
2022/04/03 01:12:53;;;;;;;5.78;4.60;;;1.40;99.90;;;;;;5100075;27;20043;-73
2022/04/03 01:15:19;;;;;;;7.03;4.38;;;1.40;99.90;;;;;;5135141;27;20051;-73
2022/04/03 01:17:44;;;;;;;7.65;4.20;;;1.40;99.90;;;;;;5117283;27;20043;-73
2022/04/03 01:20:10;;;;;;;5.90;4.18;;;1.40;99.90;;;;;;5116659;27;20046;-74
2022/04/03 01:22:36;;;;;;;7.22;4.97;;;1.40;99.90;;;;;;5135107;27;20088;-74
2022/04/03 01:25:02;;;;;;;8.93;4.65;;;1.40;99.90;;;;;;5100382;27;20134;-74
2022/04/03 01:27:28;;;;;;;6.05;3.95;;;1.40;99.90;;;;;;5099975;27;20127;-73
2022/04/03 01:29:54;;;;;;;5.10;4.53;;;1.40;99.90;;;;;;5117089;27;20413;-73
2022/04/03 01:32:22;;;;;;;6.47;4.28;;;1.30;99.90;;;;;;5134667;27;20047;-73
2022/04/03 01:34:48;;;;;;;7.20;4.43;;;1.40;99.90;;;;;;5099854;27;20047;-73
2022/04/03 01:37:13;;;;;;;7.65;4.25;;;1.30;99.90;;;;;;5134823;27;20107;-73
2022/04/03 01:39:39;;;;;;;6.93;4.68;;;1.30;99.90;;;;;;5116951;27;20043;-73
2022/04/03 01:42:05;;;;;;;6.97;4.70;;;1.30;99.90;;;;;;5121746;27;20172;-73
2022/04/03 01:44:30;;;;;;;6.22;4.13;;;1.20;99.90;;;;;;5130515;27;20076;-74
2022/04/03 01:46:56;;;;;;;7.93;4.10;;;1.20;99.90;;;;;;5155378;27;20061;-74
2022/04/03 01:49:22;;;;;;;7.10;4.18;;;1.20;99.90;;;;;;5136265;27;20047;-73
2022/04/03 01:51:47;;;;;;;5.22;4.13;;;1.40;99.90;;;;;;5136709;27;20113;-73
2022/04/03 01:54:13;;;;;;;6.38;4.38;;;1.20;99.90;;;;;;5154632;27;20042;-74
2022/04/03 01:56:39;;;;;;;6.32;4.05;;;1.30;99.90;;;;;;5155143;27;20501;-73
2022/04/03 01:59:05;;;;;;;5.45;3.85;;;1.10;99.90;;;;;;5154756;27;20053;-74
2022/04/03 02:01:31;;;;;;;6.03;3.72;;;1.20;99.90;;;;;;5150365;27;20759;-74
2022/04/03 02:03:58;;;;;;;5.63;3.40;;;1.20;99.90;;;;;;5136574;27;20074;-73
2022/04/03 02:06:24;;;;;;;6.30;3.33;;;1.20;99.90;;;;;;5101793;27;20081;-74
2022/04/03 02:08:49;;;;;;;3.88;3.30;;;1.10;99.90;;;;;;5136304;27;20108;-73
2022/04/03 02:11:15;;;;;;;6.75;3.60;;;1.10;99.90;;;;;;5136134;27;20049;-74
2022/04/03 02:13:41;;;;;;;10.25;3.85;;;1.10;99.90;;;;;;5136406;27;20046;-74
2022/04/03 02:16:07;;;;;;;7.93;4.00;;;1.10;99.90;;;;;;5136453;27;20078;-73
2022/04/03 02:18:32;;;;;;;4.63;3.42;;;1.10;99.90;;;;;;5154592;27;20047;-74
2022/04/03 02:20:58;;;;;;;4.95;3.38;;;1.10;99.90;;;;;;5154855;27;20102;-74
2022/04/03 02:23:23;;;;;;;6.97;3.97;;;1.10;99.90;;;;;;5136013;27;20082;-74
2022/04/03 02:25:50;;;;;;;4.50;3.58;;;1.10;99.90;;;;;;5136426;27;20035;-73
2022/04/03 02:28:16;;;;;;;7.22;3.70;;;1.10;99.90;;;;;;5136196;27;20050;-74
2022/04/03 02:30:42;;;;;;;6.97;3.67;;;1.10;99.90;;;;;;5154896;27;20046;-74
2022/04/03 02:33:08;;;;;;;6.05;3.78;;;1.10;99.90;;;;;;5102593;27;20046;-74
2022/04/03 02:35:34;;;;;;;6.93;3.83;;;1.00;99.90;;;;;;5154432;27;20046;-74
2022/04/03 02:37:59;;;;;;;5.22;3.53;;;1.00;99.90;;;;;;5154999;27;20115;-73
2022/04/03 02:40:25;;;;;;;6.18;3.65;;;1.10;99.90;;;;;;5135714;27;20475;-74
2022/04/03 02:42:52;;;;;;;5.45;3.83;;;1.10;99.90;;;;;;5136008;27;20039;-73
2022/04/03 02:45:18;;;;;;;6.20;3.70;;;1.10;99.90;;;;;;5154004;27;20043;-74
2022/04/03 02:47:54;;;;;;;4.32;3.30;;;1.10;99.90;;;;;;5148936;27;20505;-73
2022/04/03 02:50:20;;;;;;;6.00;3.30;;;1.30;99.90;;;;;;5147741;27;20106;-74
2022/04/03 02:52:47;;;;;;;5.45;3.28;;;1.20;99.90;;;;;;5153860;27;20042;-74
2022/04/03 02:55:13;;;;;;;4.82;3.80;;;1.30;99.90;;;;;;5148957;27;20051;-74
2022/04/03 02:57:39;;;;;;;5.30;3.15;;;1.30;99.90;;;;;;5153595;27;20524;-74
2022/04/03 03:00:06;;;;;;;4.43;3.05;;;1.30;99.90;;;;;;5135559;27;20045;-73
2022/04/03 03:02:32;;;;;;;5.38;3.30;;;1.40;99.90;;;;;;5114441;27;20059;-74
2022/04/03 03:04:57;;;;;;;3.92;2.80;;;1.40;99.90;;;;;;5128227;27;20050;-74
2022/04/03 03:07:23;;;;;;;5.10;3.03;;;1.50;99.90;;;;;;5149164;27;20494;-73
2022/04/03 03:09:49;;;;;;;5.43;3.10;;;1.60;99.90;;;;;;5134772;27;20417;-73
2022/04/03 03:12:15;;;;;;;5.35;2.95;;;1.50;99.90;;;;;;5135694;27;20041;-73
2022/04/03 03:14:41;;;;;;;5.47;2.90;;;1.50;99.90;;;;;;5135206;27;20095;-73
2022/04/03 03:17:06;;;;;;;6.20;3.05;;;1.50;99.90;;;;;;5147690;27;20440;-73
2022/04/03 03:19:32;;;;;;;7.15;3.00;;;1.60;99.90;;;;;;5114554;28;20039;-74
2022/04/03 03:21:58;;;;;;;5.35;3.10;;;1.70;99.90;;;;;;5133069;28;20126;-73
2022/04/03 03:24:23;;;;;;;3.97;3.08;;;1.50;99.90;;;;;;5132832;28;20043;-74
2022/04/03 03:26:49;;;;;;;5.50;2.95;;;1.60;99.90;;;;;;5115427;28;20108;-73
2022/04/03 03:29:15;;;;;;;3.22;2.67;;;1.60;99.90;;;;;;5133269;28;20043;-74
2022/04/03 03:31:40;;;;;;;5.43;3.10;;;1.60;99.90;;;;;;5132919;28;20104;-73
2022/04/03 03:34:06;;;;;;;6.85;2.90;;;1.60;99.90;;;;;;5114954;28;20051;-74
2022/04/03 03:36:32;;;;;;;4.38;3.10;;;1.60;99.90;;;;;;5132828;28;20103;-74
2022/04/03 03:38:57;;;;;;;5.05;2.80;;;1.60;99.90;;;;;;5098334;28;20050;-73
2022/04/03 03:41:23;;;;;;;4.88;3.30;;;1.60;99.90;;;;;;5132633;28;20058;-73
2022/04/03 03:43:49;;;;;;;5.03;2.83;;;1.60;99.90;;;;;;5114944;28;20479;-74
2022/04/03 03:46:14;;;;;;;5.00;3.10;;;1.60;99.90;;;;;;5133096;28;20390;-74
2022/04/03 03:48:40;;;;;;;4.60;3.00;;;1.70;99.90;;;;;;5114498;28;20047;-74
2022/04/03 03:51:06;;;;;;;3.65;2.60;;;1.60;99.90;;;;;;5098293;28;20051;-75
2022/04/03 03:53:32;;;;;;;4.47;3.03;;;1.60;99.90;;;;;;5114510;28;20069;-74
2022/04/03 03:55:57;;;;;;;4.40;3.45;;;1.60;99.90;;;;;;5132910;28;20046;-74
2022/04/03 03:58:23;;;;;;;4.50;2.80;;;1.60;99.90;;;;;;5097393;28;20054;-78
2022/04/03 04:00:49;;;;;;;4.35;2.85;;;1.50;99.90;;;;;;5097929;28;20432;-74
2022/04/03 04:03:14;;;;;;;4.70;2.38;;;1.40;99.90;;;;;;5132965;28;20444;-73
2022/04/03 04:05:40;;;;;;;4.68;2.55;;;1.40;99.90;;;;;;5114216;28;20047;-73
2022/04/03 04:08:07;;;;;;;4.45;2.58;;;1.40;99.90;;;;;;5132583;28;20495;-74
2022/04/03 04:10:33;;;;;;;3.17;2.53;;;1.40;99.90;;;;;;5114364;28;20043;-74
2022/04/03 04:12:58;;;;;;;3.70;2.53;;;1.30;99.90;;;;;;5133101;28;20130;-73
2022/04/03 04:15:25;;;;;;;5.35;2.67;;;1.30;99.90;;;;;;5097854;28;20036;-73
2022/04/03 04:17:52;;;;;;;4.78;2.92;;;1.30;99.90;;;;;;5132953;28;20065;-74
2022/04/03 04:20:18;;;;;;;4.63;2.83;;;1.30;99.90;;;;;;5114736;27;20378;-74
2022/04/03 04:22:46;;;;;;;3.90;2.53;;;1.30;99.90;;;;;;5117920;27;20050;-74
2022/04/03 04:25:13;;;;;;;4.25;3.03;;;1.30;99.90;;;;;;5101764;27;20046;-74
2022/04/03 04:27:39;;;;;;;7.00;2.55;;;1.30;99.90;;;;;;5118099;27;20122;-73
2022/04/03 04:30:05;;;;;;;3.88;2.83;;;1.20;99.90;;;;;;5118085;27;20188;-74
2022/04/03 04:32:32;;;;;;;5.00;2.85;;;1.20;99.90;;;;;;5135921;27;20122;-74
2022/04/03 04:34:57;;;;;;;4.88;3.20;;;1.10;99.90;;;;;;5118211;27;20049;-73
2022/04/03 04:37:23;;;;;;;4.60;2.85;;;1.10;99.90;;;;;;5101145;27;20461;-73
2022/04/03 04:39:48;;;;;;;4.32;2.67;;;1.10;99.90;;;;;;5117658;27;20047;-73
2022/04/03 04:42:14;;;;;;;3.88;2.80;;;1.10;99.90;;;;;;5136130;27;20043;-81
2022/04/03 04:44:40;;;;;;;3.08;2.78;;;1.10;99.90;;;;;;5100680;27;20479;-74
2022/04/03 04:47:06;;;;;;;5.30;2.92;;;1.00;99.90;;;;;;5136117;27;20482;-74
2022/04/03 04:49:31;;;;;;;6.15;2.92;;;1.00;99.90;;;;;;5117321;27;20062;-75
2022/04/03 04:51:57;;;;;;;3.08;2.50;;;1.00;99.90;;;;;;5136120;27;20398;-73
2022/04/03 04:54:25;;;;;;;4.05;2.53;;;1.00;99.90;;;;;;5136102;27;20047;-73
2022/04/03 04:56:50;;;;;;;3.30;2.70;;;1.00;99.90;;;;;;5135750;27;20594;-73
2022/04/03 04:59:17;;;;;;;6.88;3.38;;;1.00;99.90;;;;;;5136002;27;20082;-73
2022/04/03 05:01:42;;;;;;;6.57;2.92;;;1.00;99.90;;;;;;5117460;27;20486;-73
2022/04/03 05:04:08;;;;;;;3.78;3.38;;;0.90;99.90;;;;;;5135860;27;20149;-73
2022/04/03 05:06:34;;;;;;;4.80;2.90;;;0.90;99.90;;;;;;5135126;27;20176;-74
2022/04/03 05:09:00;;;;;;;3.13;2.72;;;0.90;99.90;;;;;;5135054;27;20051;-76
2022/04/03 05:11:26;;;;;;;4.20;2.63;;;1.00;99.90;;;;;;5154077;27;20043;-73
2022/04/03 05:13:52;;;;;;;5.57;3.38;;;0.90;99.90;;;;;;5137692;27;20470;-73
2022/04/03 05:16:17;;;;;;;5.65;3.58;;;0.90;99.90;;;;;;5156469;27;20047;-73
2022/04/03 05:18:43;;;;;;;4.00;3.08;;;0.90;99.90;;;;;;5155975;27;20050;-74
2022/04/03 05:21:10;;;;;;;5.00;3.90;;;0.90;99.90;;;;;;5156336;27;20039;-73
2022/04/03 05:23:37;;;;;;;5.82;4.70;;;0.90;99.90;;;;;;5155641;27;20039;-74
2022/04/03 05:26:03;;;;;;;4.70;4.22;;;0.90;99.90;;;;;;5104119;27;20155;-75
2022/04/03 05:28:29;;;;;;;6.28;4.68;;;0.90;99.90;;;;;;5156390;27;20043;-73
2022/04/03 05:30:54;;;;;;;6.97;4.30;;;1.00;99.90;;;;;;5155891;27;20215;-73
2022/04/03 05:33:20;;;;;;;8.38;4.00;;;1.00;99.90;;;;;;5137264;27;20046;-73
2022/04/03 05:35:46;;;;;;;5.03;4.00;;;1.00;99.90;;;;;;5155543;27;20435;-74
2022/04/03 05:38:12;;;;;;;6.88;4.10;;;1.00;99.90;;;;;;5155717;27;20506;-74
2022/04/03 05:40:38;;;;;;;6.25;5.43;;;1.00;99.90;;;;;;5155423;27;20230;-74
2022/04/03 05:43:04;;;;;;;9.90;5.82;;;1.10;99.90;;;;;;5137492;27;20122;-74
2022/04/03 05:45:29;;;;;;;6.70;5.85;;;1.10;99.90;;;;;;5155804;27;20205;-73
2022/04/03 05:47:55;;;;;;;5.20;4.32;;;1.20;99.90;;;;;;5136955;27;20367;-73
2022/04/03 05:50:21;;;;;;;5.32;3.85;;;1.20;99.90;;;;;;5155742;27;20043;-74
2022/04/03 05:52:47;;;;;;;6.32;3.05;;;1.30;99.90;;;;;;5155284;27;20046;-73
2022/04/03 05:55:16;;;;;;;4.85;2.65;;;1.30;99.90;;;;;;5155791;27;20432;-73
2022/04/03 05:57:42;;;;;;;3.00;2.50;;;1.30;99.90;;;;;;5137192;27;20367;-74
2022/04/03 06:00:12;;;;;;;3.70;2.60;;;1.30;99.90;;;;;;5119897;27;20099;-74
2022/04/03 06:02:48;;;;;;;3.90;2.55;;;1.30;99.90;;;;;;5137645;27;20104;-74
2022/04/03 06:05:14;;;;;;;3.35;2.80;;;1.30;99.90;;;;;;5155430;27;20043;-73
2022/04/03 06:07:40;;;;;;;3.95;2.65;;;1.30;99.90;;;;;;5136237;27;20103;-77
2022/04/03 06:10:06;;;;;;;4.18;2.85;;;1.30;99.90;;;;;;5155237;27;20043;-74
2022/04/03 06:12:32;;;;;;;5.30;2.75;;;1.40;99.90;;;;;;5155292;27;20074;-73
2022/04/03 06:14:58;;;;;;;3.97;2.63;;;1.50;99.90;;;;;;5136276;27;20058;-73
2022/04/03 06:17:23;;;;;;;6.30;2.72;;;1.50;99.90;;;;;;5136775;27;20039;-73
2022/04/03 06:19:49;;;;;;;7.07;2.80;;;1.60;99.90;;;;;;5136540;27;20049;-73
2022/04/03 06:22:15;;;;;;;4.07;2.60;;;1.60;99.90;;;;;;5136545;27;20117;-73
2022/04/03 06:24:41;;;;;;;4.15;2.38;;;1.60;99.90;;;;;;5136618;27;20498;-74
2022/04/03 06:27:06;;;;;;;4.15;2.80;;;1.70;99.90;;;;;;5119230;27;20046;-74
2022/04/03 06:29:32;;;;;;;3.20;2.15;;;1.70;99.90;;;;;;5136761;27;20091;-74
2022/04/03 06:31:58;;;;;;;3.00;2.63;;;1.70;99.90;;;;;;5136024;27;20034;-74
2022/04/03 06:34:23;;;;;;;4.70;2.55;;;1.70;99.90;;;;;;5154731;27;20467;-75
2022/04/03 06:36:49;;;;;;;3.33;2.38;;;1.80;99.90;;;;;;5135996;27;20402;-74
2022/04/03 06:39:15;;;;;;;4.97;2.13;;;1.80;99.90;;;;;;5152153;27;20053;-74
2022/04/03 06:41:40;;;;;;;5.22;2.40;;;1.80;99.90;;;;;;5151246;27;20038;-73
2022/04/03 06:44:06;;;;;;;2.85;2.20;;;2.00;99.90;;;;;;5134998;27;20046;-74
2022/04/03 06:46:32;;;;;;;3.63;2.17;;;2.10;99.90;;;;;;5154603;27;20043;-74
2022/04/03 06:48:58;;;;;;;5.75;2.15;;;2.20;99.90;;;;;;5154323;27;20082;-73
2022/04/03 06:51:23;;;;;;;5.47;2.17;;;2.30;99.90;;;;;;5102289;27;20146;-73
2022/04/03 06:53:49;;;;;;;4.45;2.63;;;2.40;99.90;;;;;;5135734;27;20122;-74
2022/04/03 06:56:15;;;;;;;4.72;2.03;;;2.60;99.90;;;;;;5136015;27;20087;-74
2022/04/03 06:58:40;;;;;;;4.80;1.90;;;2.60;99.90;;;;;;5102124;27;20112;-74
2022/04/03 07:01:06;;;;;;;3.47;1.73;;;2.70;99.90;;;;;;5153864;27;20058;-73
2022/04/03 07:03:32;;;;;;;2.75;1.67;;;2.80;99.90;;;;;;5154482;27;20436;-76
2022/04/03 07:05:59;;;;;;;3.15;1.85;;;2.90;99.90;;;;;;5118506;27;20046;-73
2022/04/03 07:08:25;;;;;;;4.70;1.80;;;3.00;99.90;;;;;;5154291;27;20050;-74
2022/04/03 07:10:50;;;;;;;2.50;1.67;;;3.10;99.90;;;;;;5153795;27;20049;-74
2022/04/03 07:13:16;;;;;;;5.13;1.42;;;3.10;99.90;;;;;;5154084;27;20046;-73
2022/04/03 07:15:43;;;;;;;2.60;1.42;;;3.20;99.90;;;;;;5154283;27;20047;-73
2022/04/03 07:18:08;;;;;;;3.85;1.30;;;3.20;99.90;;;;;;5153991;27;20082;-73
2022/04/03 07:20:34;;;;;;;3.75;1.48;;;3.30;99.90;;;;;;5154049;27;20084;-73
2022/04/03 07:23:00;;;;;;;3.28;1.30;;;3.30;99.90;;;;;;5153643;27;20039;-73
2022/04/03 07:25:25;;;;;;;2.55;1.23;;;3.40;99.90;;;;;;5154073;27;20127;-74
2022/04/03 07:27:51;;;;;;;4.13;1.30;;;3.40;99.90;;;;;;5118242;27;20398;-77
2022/04/03 07:30:17;;;;;;;4.88;1.40;;;3.50;99.90;;;;;;5153931;27;20050;-76
2022/04/03 07:32:42;;;;;;;4.53;1.20;;;3.50;99.90;;;;;;5135493;27;20068;-75
2022/04/03 07:35:26;;;;;;;2.47;1.30;;;3.50;99.90;;;;;;5153124;27;20035;-75
2022/04/03 07:37:52;;;;;;;5.20;1.50;;;3.60;99.90;;;;;;5123151;27;20047;-78
2022/04/03 07:40:18;;;;;;;5.65;1.15;;;3.70;99.90;;;;;;5153702;27;20038;-75
2022/04/03 07:42:46;;;;;;;4.00;1.10;;;3.70;99.90;;;;;;5133133;27;20402;-76
2022/04/03 07:45:12;;;;;;;4.63;1.35;;;3.70;99.90;;;;;;5151680;27;20092;-75
2022/04/03 07:47:47;;;;;;;5.10;1.40;;;3.80;99.90;;;;;;5135412;27;20505;-75
2022/04/03 07:50:13;;;;;;;8.30;1.60;;;3.80;99.90;;;;;;5134913;27;20061;-77
2022/04/03 07:52:41;;;;;;;6.05;1.48;;;3.90;99.90;;;;;;5153918;27;20038;-76
2022/04/03 07:55:10;;;;;;;5.47;1.60;;;3.90;99.90;;;;;;5153391;27;20125;-76
2022/04/03 07:57:38;;;;;;;6.57;1.58;;;4.00;99.90;;;;;;5139771;27;20115;-75
2022/04/03 08:00:06;;;;;;;4.05;1.38;;;4.00;99.90;;;;;;5157098;27;20125;-74
2022/04/03 08:02:34;;;;;;;5.05;1.30;;;4.00;99.90;;;;;;5139519;27;20038;-74
2022/04/03 08:04:59;;;;;;;6.63;1.40;;;4.10;99.90;;;;;;5138915;27;20165;-73
2022/04/03 08:07:44;;;;;;;3.92;1.30;;;4.20;99.90;;;;;;5138675;27;20462;-73
2022/04/03 08:10:15;;;;;;;4.15;1.25;;;4.30;99.90;;;;;;5138553;27;20049;-73
2022/04/03 08:12:41;;;;;;;2.97;1.10;;;4.20;99.90;;;;;;5157659;27;20050;-74
2022/04/03 08:15:08;;;;;;;4.82;1.27;;;4.40;99.90;;;;;;5121383;27;20051;-74
2022/04/03 08:17:34;;;;;;;3.58;1.42;;;4.40;99.90;;;;;;5104377;27;20051;-74
2022/04/03 08:20:00;;;;;;;6.47;1.70;;;4.50;99.90;;;;;;5156926;27;20046;-75
2022/04/03 08:22:26;;;;;;;2.75;1.27;;;4.60;99.90;;;;;;5138959;27;20050;-75
2022/04/03 08:24:51;;;;;;;3.30;1.25;;;4.70;99.90;;;;;;5138761;27;20439;-74
2022/04/03 08:27:17;;;;;;;4.78;1.20;;;4.70;99.90;;;;;;5138632;27;20099;-74
2022/04/03 08:29:43;;;;;;;4.53;1.27;;;4.80;99.90;;;;;;5138638;27;20422;-74
2022/04/03 08:32:09;;;;;;;3.97;0.90;;;4.90;99.90;;;;;;5156785;27;20085;-72
2022/04/03 08:34:35;;;;;;;3.50;1.05;;;4.90;99.90;;;;;;5138727;27;20420;-73
2022/04/03 08:37:00;;;;;;;5.43;1.58;;;4.90;99.90;;;;;;5156852;27;20050;-77
2022/04/03 08:39:26;;;;;;;2.53;1.00;;;5.00;99.90;;;;;;5153526;27;20035;-73
2022/04/03 08:41:52;;;;;;;3.35;1.20;;;5.00;99.90;;;;;;5138240;27;20122;-74
2022/04/03 08:44:21;;;;;;;4.90;1.35;;;5.10;99.90;;;;;;5156530;27;20078;-73
2022/04/03 08:46:48;;;;;;;2.45;0.95;;;5.20;99.90;;;;;;5121257;27;20041;-74
2022/04/03 08:49:14;;;;;;;1.85;0.90;;;5.30;99.90;;;;;;5156369;27;20047;-73
2022/04/03 08:51:42;;;;;;;6.10;1.40;;;5.40;99.90;;;;;;5138364;27;20070;-81
2022/04/03 08:54:08;;;;;;;5.85;1.48;;;5.50;99.90;;;;;;5087377;27;20398;-74
2022/04/03 08:56:33;;;;;;;3.15;1.25;;;5.80;99.90;;;;;;5098095;27;20047;-74
2022/04/03 08:58:59;;;;;;;4.18;0.90;;;5.90;99.90;;;;;;5099329;27;20375;-74
2022/04/03 09:01:25;;;;;;;4.40;1.20;;;6.00;99.90;;;;;;5117151;27;20043;-74
2022/04/03 09:03:51;;;;;;;4.22;1.10;;;6.00;99.90;;;;;;5145083;27;20057;-74
2022/04/03 09:06:17;;;;;;;5.18;1.00;;;6.00;99.90;;;;;;5138834;27;20047;-74
2022/04/03 09:08:43;;;;;;;2.95;1.30;;;6.00;99.90;;;;;;5135796;27;20062;-74
2022/04/03 09:11:09;;;;;;;3.80;0.82;;;5.90;99.90;;;;;;5136273;27;20031;-74
2022/04/03 09:13:36;;;;;;;3.05;0.90;;;5.80;99.90;;;;;;5136472;27;20042;-74
2022/04/03 09:16:01;;;;;;;3.70;1.08;;;5.80;99.90;;;;;;5119359;27;20053;-76
2022/04/03 09:18:47;;;;;;;5.47;1.00;;;5.70;99.90;;;;;;5154495;27;20038;-74
2022/04/03 09:21:26;;;;;;;1.15;0.90;;;5.80;99.90;;;;;;5118475;27;20035;-74
2022/04/03 09:24:08;;;;;;;3.78;0.90;;;5.80;99.90;;;;;;5154806;27;20086;-74
2022/04/03 09:26:34;;;;;;;2.55;0.90;;;5.90;99.90;;;;;;5136721;27;20129;-74
2022/04/03 09:29:09;;;;;;;2.28;0.77;;;6.00;99.90;;;;;;5136138;27;20167;-75
2022/04/03 09:31:35;;;;;;;3.05;1.02;;;6.20;99.90;;;;;;5136047;27;20569;-74
2022/04/03 09:34:01;;;;;;;2.58;1.10;;;6.10;99.90;;;;;;5154812;27;20188;-75
2022/04/03 09:36:31;;;;;;;2.90;0.90;;;6.00;99.90;;;;;;5154330;27;20050;-74
2022/04/03 09:39:12;;;;;;;1.80;0.77;;;6.00;99.90;;;;;;5119610;27;20074;-74
2022/04/03 09:42:01;;;;;;;2.22;0.82;;;5.90;99.90;;;;;;5154642;27;20527;-75
2022/04/03 09:44:28;;;;;;;2.70;0.93;;;5.90;99.90;;;;;;5154272;27;20039;-74
2022/04/03 09:47:21;;;;;;;3.95;1.20;;;5.90;99.90;;;;;;5134967;27;20085;-75
2022/04/03 09:49:55;;;;;;;2.08;0.80;;;5.80;99.90;;;;;;5153004;27;20457;-75
2022/04/03 09:52:40;;;;;;;1.10;0.80;;;5.80;99.90;;;;;;5135211;27;20039;-74
2022/04/03 09:55:13;;;;;;;1.52;0.90;;;5.70;99.90;;;;;;5154186;27;20172;-75
2022/04/03 09:57:39;;;;;;;3.05;0.88;;;5.70;99.90;;;;;;5154015;27;20051;-74
2022/04/03 10:00:05;;;;;;;2.63;0.70;;;5.70;99.90;;;;;;5154045;27;20042;-74
2022/04/03 10:02:31;;;;;;;1.67;0.60;;;5.80;99.90;;;;;;5135142;27;20064;-75
2022/04/03 10:04:57;;;;;;;0.75;0.70;;;5.90;99.90;;;;;;5154087;27;20360;-76
2022/04/03 10:07:22;;;;;;;1.70;0.88;;;6.10;99.90;;;;;;5130252;27;20402;-74
2022/04/03 10:09:49;;;;;;;4.18;0.88;;;6.30;99.90;;;;;;5112763;28;20040;-74
2022/04/03 10:12:22;;;;;;;1.70;0.68;;;6.50;99.90;;;;;;5094993;27;20054;-78
2022/04/03 10:14:51;;;;;;;2.42;0.68;;;6.70;99.70;;;;;;5101283;28;20049;-75
2022/04/03 10:17:18;;;;;;;2.60;0.80;;;6.80;97.80;;;;;;5108905;27;20040;-75
2022/04/03 10:19:44;;;;;;;2.53;0.60;;;6.90;97.30;;;;;;5112911;27;20088;-74
2022/04/03 10:22:27;;;;;;;2.38;0.70;;;6.80;97.20;;;;;;5109828;27;20500;-77
2022/04/03 10:24:54;;;;;;;2.97;0.60;;;6.80;96.80;;;;;;5104327;28;20040;-75
2022/04/03 10:27:23;;;;;;;2.17;0.65;;;6.80;96.20;;;;;;5069086;28;20512;-77
2022/04/03 10:29:49;;;;;;;2.65;0.60;;;6.80;96.20;;;;;;5097358;27;20048;-74
2022/04/03 10:32:27;;;;;;;2.35;0.70;;;6.90;96.30;;;;;;5110901;28;20048;-74
2022/04/03 10:34:59;;;;;;;2.78;0.88;;;7.10;96.00;;;;;;5107779;27;20054;-75
2022/04/03 10:37:38;;;;;;;2.15;0.60;;;7.10;96.70;;;;;;5111147;27;20048;-74
2022/04/03 10:40:07;;;;;;;1.60;0.85;;;7.20;96.90;;;;;;5099312;28;20558;-76
2022/04/03 10:42:33;;;;;;;5.60;1.00;;;7.10;97.00;;;;;;5103411;28;20289;-74
2022/04/03 10:45:11;;;;;;;1.50;0.63;;;7.10;97.50;;;;;;5107497;28;20055;-74
2022/04/03 10:47:40;;;;;;;2.67;0.85;;;7.00;97.80;;;;;;5111597;28;20062;-74
2022/04/03 10:50:06;;;;;;;4.28;0.80;;;6.90;98.30;;;;;;5112144;28;20082;-74
2022/04/03 10:52:38;;;;;;;2.38;0.70;;;6.90;98.20;;;;;;5094157;28;20471;-74
2022/04/03 10:55:17;;;;;;;2.70;0.82;;;6.90;97.70;;;;;;5108586;28;20044;-76
2022/04/03 10:57:50;;;;;;;2.10;0.88;;;6.80;97.40;;;;;;5088866;28;20048;-73
2022/04/03 11:00:16;;;;;;;3.58;0.80;;;6.80;97.00;;;;;;5113589;27;20048;-78
2022/04/03 11:03:14;;;;;;;1.48;0.63;;;6.90;97.30;;;;;;5112777;28;20051;-74
2022/04/03 11:05:41;;;;;;;2.30;0.80;;;6.90;96.70;;;;;;5097117;28;20090;-73
2022/04/03 11:08:07;;;;;;;2.05;0.57;;;6.80;96.80;;;;;;5143837;27;20126;-73
2022/04/03 11:10:56;;;;;;;2.50;0.60;;;6.90;97.00;;;;;;5141388;27;20134;-75
2022/04/03 11:13:29;;;;;;;1.45;0.47;;;6.80;96.80;;;;;;5153404;27;20091;-74
2022/04/03 11:16:01;;;;;;;0.47;0.40;;;6.70;96.80;;;;;;5134715;27;20066;-74
2022/04/03 11:18:36;;;;;;;3.30;0.57;;;6.70;97.40;;;;;;5151967;27;20047;-78
2022/04/03 11:21:25;;;;;;;1.05;0.50;;;6.70;98.00;;;;;;5153098;27;20066;-74
2022/04/03 11:24:10;;;;;;;2.65;0.60;;;6.80;97.50;;;;;;5142235;27;20079;-74
2022/04/03 11:26:36;;;;;;;1.95;0.50;;;6.90;97.40;;;;;;5145801;27;20050;-74
2022/04/03 11:29:02;;;;;;;1.33;0.40;;;6.90;97.80;;;;;;5115848;27;20062;-75
2022/04/03 11:31:28;;;;;;;1.75;0.40;;;6.90;97.80;;;;;;5143968;27;20038;-74
2022/04/03 11:33:53;;;;;;;1.13;0.43;;;7.00;97.60;;;;;;5143788;27;20075;-75
2022/04/03 11:36:23;;;;;;;1.27;0.30;;;6.90;97.30;;;;;;5157479;27;20047;-75
2022/04/03 11:38:50;;;;;;;2.73;0.40;;;6.90;97.20;;;;;;5140146;27;20447;-76
2022/04/03 11:41:20;;;;;;;0.75;0.30;;;6.90;97.00;;;;;;5105660;27;20074;-75
2022/04/03 11:43:57;;;;;;;1.10;0.30;;;7.00;96.30;;;;;;5131092;27;20051;-75
2022/04/03 11:46:23;;;;;;;1.45;0.45;;;6.90;95.60;;;;;;5134800;27;20333;-75
2022/04/03 11:48:49;;;;;;;1.00;0.40;;;6.90;96.40;;;;;;5124665;27;20118;-75
2022/04/03 11:51:17;;;;;;;1.83;0.65;;;7.10;97.70;;;;;;5157759;27;20126;-75
2022/04/03 11:53:44;;;;;;;2.10;0.70;;;7.30;97.50;;;;;;5139299;27;20465;-75
2022/04/03 11:56:13;;;;;;;1.38;0.45;;;7.50;97.70;;;;;;5156888;27;20047;-75
2022/04/03 11:58:44;;;;;;;2.08;0.47;;;7.50;97.50;;;;;;5157477;27;20048;-74
2022/04/03 12:01:10;;;;;;;3.33;0.50;;;7.60;97.80;;;;;;5157862;27;20047;-75
2022/04/03 12:03:36;;;;;;;1.70;0.22;;;7.60;97.50;;;;;;5141090;27;20051;-75
2022/04/03 12:06:14;;;;;;;1.42;0.32;;;7.60;97.10;;;;;;5125498;27;20043;-75
2022/04/03 12:08:40;;;;;;;1.05;0.60;;;7.60;96.50;;;;;;5154537;27;20089;-75
2022/04/03 12:11:26;;;;;;;0.88;0.30;;;7.50;96.30;;;;;;5157246;27;20034;-75
2022/04/03 12:13:56;;;;;;;1.40;0.52;;;7.50;96.30;;;;;;5134896;27;20046;-75
2022/04/03 12:16:27;;;;;;;3.40;0.55;;;7.50;96.60;;;;;;5118208;27;20043;-75
2022/04/03 12:18:57;;;;;;;4.60;0.77;;;7.50;96.40;;;;;;5118687;27;20100;-74
2022/04/03 12:21:35;;;;;;;0.77;0.55;;;7.60;96.50;;;;;;5136936;27;20043;-75
2022/04/03 12:24:06;;;;;;;2.10;0.50;;;7.70;96.30;;;;;;5136577;27;20054;-76
2022/04/03 12:26:32;;;;;;;1.95;0.90;;;7.80;95.80;;;;;;5140364;27;20043;-75
2022/04/03 12:28:58;;;;;;;2.08;0.63;;;7.90;94.40;;;;;;5121404;27;20509;-75
2022/04/03 12:31:31;;;;;;;1.60;0.50;;;7.90;93.60;;;;;;5138729;27;20039;-75
2022/04/03 12:34:10;;;;;;;1.02;0.50;;;8.00;93.10;;;;;;5139273;27;20050;-75
2022/04/03 12:36:49;;;;;;;2.63;0.80;;;8.00;92.80;;;;;;5138721;27;20058;-75
2022/04/03 12:39:33;;;;;;;0.80;0.50;;;8.00;93.00;;;;;;5157504;27;20050;-75
2022/04/03 12:42:17;;;;;;;2.13;0.70;;;7.90;92.20;;;;;;5156118;27;20051;-75
2022/04/03 12:44:51;;;;;;;2.15;0.70;;;7.90;92.40;;;;;;5156842;27;20042;-75
2022/04/03 12:47:18;;;;;;;2.53;0.70;;;7.80;92.70;;;;;;5138811;27;20043;-75
2022/04/03 12:50:02;;;;;;;2.33;0.68;;;7.80;93.00;;;;;;5156752;27;20053;-76
2022/04/03 12:52:45;;;;;;;3.85;0.75;;;7.80;92.30;;;;;;5121695;27;20042;-75
2022/04/03 12:55:23;;;;;;;2.13;0.55;;;7.70;92.80;;;;;;5117216;27;20103;-75
2022/04/03 13:00:45;;;;;;;2.57;0.60;;;7.70;93.50;;;;;;5148745;27;20066;-76
2022/04/03 13:03:21;;;;;;;2.63;0.85;;;7.70;94.40;;;;;;5156601;27;20095;-76
2022/04/03 13:05:47;;;;;;;1.58;0.80;;;7.70;94.20;;;;;;5156150;27;20051;-76